createdAt,value
2023-11-13T00:02:24.707Z,16.10
2023-11-13T00:05:12.337Z,11.80
2023-11-13T00:08:00.045Z,13.10
2023-11-13T00:10:47.885Z,14.20
2023-11-13T00:13:35.028Z,25.20
2023-11-13T00:16:22.473Z,26.10
2023-11-13T00:19:10.289Z,12.90
2023-11-13T00:21:57.581Z,16.00
2023-11-13T00:24:45.290Z,19.60
2023-11-13T00:27:32.404Z,15.70
2023-11-13T00:30:20.276Z,14.50
2023-11-13T00:33:07.864Z,15.60
2023-11-13T00:35:56.000Z,18.30
2023-11-13T00:38:43.233Z,14.20
2023-11-13T00:41:35.188Z,14.20
2023-11-13T00:44:22.026Z,17.50
2023-11-13T00:47:09.614Z,19.30
2023-11-13T00:49:58.159Z,14.70
2023-11-13T00:52:46.101Z,9.60
2023-11-13T00:55:34.517Z,23.00
2023-11-13T00:58:25.983Z,41.40
2023-11-13T01:01:15.644Z,46.50
2023-11-13T01:04:05.954Z,45.70
2023-11-13T01:06:57.396Z,51.90
2023-11-13T01:09:46.978Z,20.60
2023-11-13T01:12:34.486Z,19.20
2023-11-13T01:15:22.380Z,19.60
2023-11-13T01:18:10.334Z,11.90
2023-11-13T01:20:57.881Z,15.10
2023-11-13T01:23:45.663Z,20.90
2023-11-13T01:26:32.410Z,14.40
2023-11-13T01:29:21.543Z,18.10
2023-11-13T01:32:08.774Z,20.20
2023-11-13T01:34:55.811Z,27.20
2023-11-13T01:37:44.788Z,25.30
2023-11-13T01:40:33.578Z,13.80
2023-11-13T01:43:22.521Z,18.80
2023-11-13T01:46:11.480Z,15.50
2023-11-13T01:49:00.647Z,25.10
2023-11-13T01:51:49.104Z,21.20
2023-11-13T01:54:36.692Z,27.10
2023-11-13T01:57:24.253Z,15.70
2023-11-13T02:00:12.347Z,18.50
2023-11-13T02:03:18.553Z,15.10
2023-11-13T02:06:07.298Z,20.20
2023-11-13T02:08:55.347Z,14.30
2023-11-13T02:11:43.523Z,12.50
2023-11-13T02:14:30.780Z,15.10
2023-11-13T02:17:18.620Z,18.90
2023-11-13T02:20:08.420Z,16.10
2023-11-13T02:22:56.561Z,21.30
2023-11-13T02:25:50.415Z,15.00
2023-11-13T02:28:37.637Z,10.10
2023-11-13T02:31:25.983Z,17.20
2023-11-13T02:34:13.919Z,9.10
2023-11-13T02:37:02.281Z,16.70
2023-11-13T02:39:49.943Z,13.10
2023-11-13T02:42:41.534Z,13.40
2023-11-13T02:45:29.354Z,18.20
2023-11-13T02:48:17.090Z,19.70
2023-11-13T02:51:04.272Z,14.60
2023-11-13T02:53:51.772Z,14.40
2023-11-13T02:56:39.146Z,14.90
2023-11-13T02:59:27.282Z,14.00
2023-11-13T03:02:16.079Z,14.00
2023-11-13T03:05:03.604Z,13.40
2023-11-13T03:07:51.283Z,11.70
2023-11-13T03:10:38.753Z,14.10
2023-11-13T03:13:25.830Z,10.40
2023-11-13T03:16:14.197Z,13.40
2023-11-13T03:19:01.420Z,10.20
2023-11-13T03:21:48.988Z,11.00
2023-11-13T03:24:35.969Z,15.60
2023-11-13T03:27:24.003Z,13.80
2023-11-13T03:30:11.793Z,12.20
2023-11-13T03:32:59.124Z,17.30
2023-11-13T03:35:46.505Z,14.20
2023-11-13T03:38:33.798Z,12.30
2023-11-13T03:41:21.310Z,14.50
2023-11-13T03:44:10.064Z,14.10
2023-11-13T03:46:56.907Z,17.70
2023-11-13T03:49:45.212Z,14.30
2023-11-13T03:52:33.062Z,14.10
2023-11-13T03:55:21.700Z,16.20
2023-11-13T03:58:10.250Z,12.30
2023-11-13T04:00:58.625Z,14.20
2023-11-13T04:03:46.646Z,10.60
2023-11-13T04:06:34.683Z,20.50
2023-11-13T04:09:22.679Z,34.80
2023-11-13T04:12:10.722Z,18.40
2023-11-13T04:14:57.585Z,12.80
2023-11-13T04:17:45.635Z,18.40
2023-11-13T04:20:33.587Z,16.20
2023-11-13T04:23:20.723Z,11.60
2023-11-13T04:26:08.297Z,238.90
2023-11-13T04:28:55.818Z,107.40
2023-11-13T04:31:42.813Z,167.80
2023-11-13T04:34:30.055Z,46.40
2023-11-13T04:37:17.818Z,23.40
2023-11-13T04:40:06.461Z,18.40
2023-11-13T04:42:53.727Z,12.10
2023-11-13T04:45:42.990Z,13.20
2023-11-13T04:48:30.862Z,23.50
2023-11-13T04:51:17.793Z,30.40
2023-11-13T04:54:05.162Z,23.60
2023-11-13T04:56:52.942Z,29.70
2023-11-13T04:59:40.405Z,23.20
2023-11-13T05:02:27.982Z,15.80
2023-11-13T05:05:14.949Z,20.30
2023-11-13T05:08:02.181Z,22.80
2023-11-13T05:10:50.000Z,12.80
2023-11-13T05:13:37.984Z,11.40
2023-11-13T05:16:26.256Z,11.20
2023-11-13T05:19:14.193Z,11.60
2023-11-13T05:22:02.155Z,7.20
2023-11-13T05:24:49.595Z,10.80
2023-11-13T05:27:36.585Z,8.20
2023-11-13T05:30:23.467Z,10.20
2023-11-13T05:33:11.048Z,12.50
2023-11-13T05:35:59.121Z,7.70
2023-11-13T05:38:46.660Z,8.90
2023-11-13T05:41:33.946Z,8.10
2023-11-13T05:44:21.241Z,17.70
2023-11-13T05:47:09.577Z,20.10
2023-11-13T05:49:58.075Z,16.90
2023-11-13T05:52:47.888Z,14.60
2023-11-13T05:55:38.083Z,20.90
2023-11-13T05:58:26.283Z,12.50
2023-11-13T06:01:17.577Z,12.20
2023-11-13T06:04:05.533Z,21.10
2023-11-13T06:06:53.357Z,11.30
2023-11-13T06:09:43.595Z,10.70
2023-11-13T06:12:31.994Z,8.30
2023-11-13T06:15:21.459Z,14.30
2023-11-13T06:18:09.348Z,11.50
2023-11-13T06:20:57.157Z,11.50
2023-11-13T06:23:44.525Z,7.30
2023-11-13T06:26:32.273Z,9.60
2023-11-13T06:29:20.256Z,9.00
2023-11-13T06:32:08.965Z,24.40
2023-11-13T06:34:57.500Z,7.10
2023-11-13T06:37:44.961Z,17.10
2023-11-13T06:40:32.580Z,9.90
2023-11-13T06:43:20.632Z,11.70
2023-11-13T06:46:08.071Z,10.60
2023-11-13T06:48:55.475Z,12.40
2023-11-13T06:51:42.901Z,15.10
2023-11-13T06:54:30.807Z,11.00
2023-11-13T06:57:18.093Z,9.20
2023-11-13T07:00:05.983Z,13.90
2023-11-13T07:02:53.415Z,8.50
2023-11-13T07:05:42.237Z,12.30
2023-11-13T07:08:29.389Z,6.50
2023-11-13T07:11:19.432Z,14.70
2023-11-13T07:14:09.981Z,15.20
2023-11-13T07:16:58.264Z,10.60
2023-11-13T07:19:45.086Z,15.10
2023-11-13T07:22:33.184Z,16.40
2023-11-13T07:25:21.859Z,9.50
2023-11-13T07:28:09.489Z,10.70
2023-11-13T07:30:57.270Z,12.50
2023-11-13T07:33:45.025Z,12.40
2023-11-13T07:36:33.096Z,16.20
2023-11-13T07:39:20.397Z,10.80
2023-11-13T07:42:07.279Z,8.30
2023-11-13T07:44:56.740Z,11.90
2023-11-13T07:47:44.760Z,10.70
2023-11-13T07:50:32.616Z,12.90
2023-11-13T07:53:20.521Z,9.60
2023-11-13T07:56:10.942Z,11.50
2023-11-13T07:59:03.496Z,25.00
2023-11-13T08:04:41.522Z,12.50
2023-11-13T08:07:29.479Z,11.30
2023-11-13T08:10:16.809Z,11.80
2023-11-13T08:13:04.818Z,11.50
2023-11-13T08:15:54.341Z,12.80
2023-11-13T08:18:41.581Z,17.30
2023-11-13T08:21:31.284Z,10.20
2023-11-13T08:24:21.162Z,9.00
2023-11-13T08:27:08.350Z,15.90
2023-11-13T08:29:55.772Z,14.30
2023-11-13T08:32:44.044Z,11.50
2023-11-13T08:35:33.957Z,10.80
2023-11-13T08:38:21.267Z,12.60
2023-11-13T08:41:08.629Z,11.10
2023-11-13T08:43:56.619Z,23.80
2023-11-13T08:46:44.693Z,15.90
2023-11-13T08:49:35.208Z,13.50
2023-11-13T08:52:23.878Z,45.90
2023-11-13T08:55:11.905Z,20.90
2023-11-13T08:57:58.882Z,27.70
2023-11-13T09:00:46.469Z,20.10
2023-11-13T09:03:34.766Z,8.80
2023-11-13T09:06:22.395Z,8.40
2023-11-13T09:09:13.820Z,11.00
2023-11-13T09:12:02.906Z,12.90
2023-11-13T09:14:50.472Z,10.10
2023-11-13T09:17:42.781Z,17.50
2023-11-13T09:20:30.849Z,9.10
2023-11-13T09:23:18.537Z,8.70
2023-11-13T09:26:06.065Z,3.90
2023-11-13T09:28:54.241Z,10.40
2023-11-13T09:31:41.519Z,11.00
2023-11-13T09:34:28.988Z,7.00
2023-11-13T09:37:17.018Z,9.90
2023-11-13T09:40:04.520Z,10.40
2023-11-13T09:42:55.708Z,8.20
2023-11-13T09:45:45.756Z,7.50
2023-11-13T09:48:36.192Z,9.50
2023-11-13T09:51:30.391Z,11.70
2023-11-13T09:54:19.042Z,7.20
2023-11-13T09:57:10.845Z,8.90
2023-11-13T09:59:58.313Z,11.50
2023-11-13T10:02:47.711Z,12.60
2023-11-13T10:05:37.339Z,8.80
2023-11-13T10:08:26.367Z,8.20
2023-11-13T10:11:14.559Z,9.70
2023-11-13T10:14:17.834Z,9.80
2023-11-13T10:17:05.739Z,9.70
2023-11-13T10:20:00.633Z,8.60
2023-11-13T10:23:05.349Z,7.40
2023-11-13T10:25:58.203Z,8.00
2023-11-13T10:28:46.937Z,8.20
2023-11-13T10:31:43.912Z,7.90
2023-11-13T10:34:50.648Z,8.20
2023-11-13T10:37:39.575Z,5.90
2023-11-13T10:40:29.829Z,8.80
2023-11-13T10:43:30.115Z,5.30
2023-11-13T10:46:27.977Z,8.50
2023-11-13T10:49:15.807Z,6.40
2023-11-13T10:52:04.112Z,8.80
2023-11-13T10:54:52.732Z,10.90
2023-11-13T10:57:41.082Z,8.70
2023-11-13T11:00:30.916Z,7.50
2023-11-13T11:03:19.772Z,9.40
2023-11-13T11:06:12.624Z,8.40
2023-11-13T11:09:02.507Z,9.10
2023-11-13T11:11:50.291Z,8.60
2023-11-13T11:14:49.814Z,10.90
2023-11-13T11:17:39.234Z,10.50
2023-11-13T11:20:30.291Z,11.10
2023-11-13T11:23:20.758Z,9.90
2023-11-13T11:26:08.638Z,12.20
2023-11-13T11:28:56.273Z,7.90
2023-11-13T11:31:44.784Z,6.70
2023-11-13T11:34:32.448Z,7.90
2023-11-13T11:37:20.680Z,13.60
2023-11-13T11:40:13.709Z,9.00
2023-11-13T11:43:03.103Z,7.40
2023-11-13T11:45:55.539Z,5.00
2023-11-13T11:48:42.795Z,8.60
2023-11-13T11:51:29.874Z,8.60
2023-11-13T11:54:17.387Z,11.30
2023-11-13T11:57:05.813Z,8.60
2023-11-13T11:59:53.389Z,9.30
2023-11-13T12:02:41.642Z,8.10
2023-11-13T12:05:28.899Z,9.00
2023-11-13T12:08:15.984Z,8.30
2023-11-13T12:11:04.537Z,7.10
2023-11-13T12:13:51.639Z,7.50
2023-11-13T12:16:39.145Z,6.90
2023-11-13T12:19:26.872Z,6.90
2023-11-13T12:22:15.488Z,7.00
2023-11-13T12:25:05.261Z,11.20
2023-11-13T12:27:53.311Z,7.10
2023-11-13T12:30:40.653Z,7.10
2023-11-13T12:33:29.409Z,11.30
2023-11-13T12:36:16.699Z,6.50
2023-11-13T12:39:05.918Z,7.70
2023-11-13T12:41:54.206Z,6.80
2023-11-13T12:44:41.111Z,6.70
2023-11-13T12:47:29.748Z,5.40
2023-11-13T12:50:18.573Z,6.30
2023-11-13T12:53:06.010Z,5.60
2023-11-13T12:55:56.042Z,7.10
2023-11-13T12:58:44.578Z,4.30
2023-11-13T13:01:33.729Z,5.70
2023-11-13T13:04:22.368Z,7.80
2023-11-13T13:07:14.284Z,7.20
2023-11-13T13:10:03.443Z,4.70
2023-11-13T13:12:51.726Z,5.60
2023-11-13T13:15:38.942Z,7.30
2023-11-13T13:18:28.557Z,5.20
2023-11-13T13:21:16.626Z,8.30
2023-11-13T13:24:08.065Z,8.90
2023-11-13T13:26:57.133Z,38.00
2023-11-13T13:29:44.815Z,9.80
2023-11-13T13:32:32.655Z,6.20
2023-11-13T13:35:21.824Z,5.70
2023-11-13T13:38:19.176Z,10.90
2023-11-13T13:41:06.958Z,7.50
2023-11-13T13:43:54.007Z,26.60
2023-11-13T13:46:42.324Z,13.30
2023-11-13T13:49:33.067Z,11.10
2023-11-13T13:52:21.808Z,7.00
2023-11-13T13:55:11.879Z,7.70
2023-11-13T13:58:02.855Z,11.30
2023-11-13T14:00:50.552Z,9.30
2023-11-13T14:03:37.484Z,11.00
2023-11-13T14:06:24.613Z,12.40
2023-11-13T14:09:15.894Z,7.70
2023-11-13T14:12:12.564Z,7.60
2023-11-13T14:15:04.265Z,7.60
2023-11-13T14:17:54.902Z,4.50
2023-11-13T14:20:48.160Z,6.30
2023-11-13T14:23:35.720Z,5.90
2023-11-13T14:26:23.206Z,7.50
2023-11-13T14:29:16.760Z,6.40
2023-11-13T14:32:05.994Z,9.50
2023-11-13T14:34:54.718Z,5.90
2023-11-13T14:37:42.407Z,6.40
2023-11-13T14:40:31.760Z,7.70
2023-11-13T14:43:21.743Z,9.20
2023-11-13T14:46:09.198Z,8.50
2023-11-13T14:48:57.531Z,13.60
2023-11-13T14:51:45.280Z,9.80
2023-11-13T14:54:32.524Z,6.60
2023-11-13T14:57:21.300Z,6.80
2023-11-13T15:00:12.341Z,4.80
2023-11-13T15:02:59.758Z,6.30
2023-11-13T15:05:47.638Z,4.90
2023-11-13T15:08:35.616Z,4.10
2023-11-13T15:11:23.570Z,9.40
2023-11-13T15:14:10.206Z,3.40
2023-11-13T15:16:59.492Z,24.20
2023-11-13T15:19:47.396Z,59.50
2023-11-13T15:22:46.333Z,99.80
2023-11-13T15:25:42.716Z,76.80
2023-11-13T15:28:30.113Z,52.00
2023-11-13T15:31:17.213Z,54.40
2023-11-13T15:34:05.213Z,28.00
2023-11-13T15:36:54.408Z,17.80
2023-11-13T15:39:41.816Z,25.60
2023-11-13T15:42:30.064Z,24.30
2023-11-13T15:45:17.510Z,43.30
2023-11-13T15:48:05.726Z,76.20
2023-11-13T15:50:53.686Z,75.30
2023-11-13T15:53:41.240Z,84.10
2023-11-13T15:56:28.472Z,63.10
2023-11-13T15:59:15.248Z,101.10
2023-11-13T16:02:04.657Z,76.80
2023-11-13T16:04:52.602Z,58.50
2023-11-13T16:07:40.157Z,49.00
2023-11-13T16:10:27.232Z,72.70
2023-11-13T16:13:15.311Z,44.30
2023-11-13T16:16:03.082Z,37.80
2023-11-13T16:18:50.383Z,28.40
2023-11-13T16:21:37.948Z,38.20
2023-11-13T16:27:33.378Z,36.80
2023-11-13T16:30:23.380Z,33.60
2023-11-13T16:33:12.442Z,34.50
2023-11-13T16:36:00.040Z,39.40
2023-11-13T16:38:48.449Z,45.40
2023-11-13T16:41:35.635Z,51.00
2023-11-13T16:44:24.201Z,49.40
2023-11-13T16:47:12.157Z,62.80
2023-11-13T16:49:58.883Z,56.10
2023-11-13T16:52:46.347Z,58.80
2023-11-13T16:55:37.391Z,66.70
2023-11-13T16:58:24.696Z,61.60
2023-11-13T17:01:11.283Z,59.90
2023-11-13T17:03:59.270Z,25.90
2023-11-13T17:06:47.195Z,76.50
2023-11-13T17:09:34.350Z,57.90
2023-11-13T17:12:21.450Z,67.40
2023-11-13T17:15:10.083Z,72.00
2023-11-13T17:17:57.129Z,96.20
2023-11-13T17:20:45.161Z,77.60
2023-11-13T17:23:32.134Z,68.80
2023-11-13T17:26:20.936Z,76.20
2023-11-13T17:29:08.642Z,76.70
2023-11-13T17:31:55.654Z,101.80
2023-11-13T17:34:43.389Z,89.90
2023-11-13T17:37:31.517Z,96.60
2023-11-13T17:40:20.183Z,50.00
2023-11-13T17:43:07.628Z,38.00
2023-11-13T17:45:58.172Z,39.10
2023-11-13T17:48:46.391Z,33.10
2023-11-13T17:51:33.663Z,39.90
2023-11-13T17:54:21.670Z,39.30
2023-11-13T17:57:11.296Z,43.20
2023-11-13T17:59:58.782Z,35.40
2023-11-13T18:02:46.333Z,41.20
2023-11-13T18:05:33.691Z,61.90
2023-11-13T18:08:23.836Z,63.70
2023-11-13T18:11:11.940Z,62.00
2023-11-13T18:13:59.265Z,37.20
2023-11-13T18:16:46.845Z,51.20
2023-11-13T18:19:34.532Z,86.30
2023-11-13T18:22:23.491Z,39.60
2023-11-13T18:25:13.267Z,63.20
2023-11-13T18:28:01.059Z,40.50
2023-11-13T18:30:50.284Z,44.40
2023-11-13T18:33:41.831Z,44.40
2023-11-13T18:36:29.281Z,32.50
2023-11-13T18:39:16.571Z,37.70
2023-11-13T18:42:03.798Z,33.10
2023-11-13T18:44:51.247Z,36.50
2023-11-13T18:47:38.663Z,38.50
2023-11-13T18:50:25.953Z,31.90
2023-11-13T18:53:13.508Z,45.30
2023-11-13T18:56:01.536Z,49.90
2023-11-13T18:58:49.249Z,38.00
2023-11-13T19:01:36.635Z,55.30
2023-11-13T19:04:23.889Z,50.00
2023-11-13T19:07:12.047Z,35.60
2023-11-13T19:10:02.412Z,40.00
2023-11-13T19:12:51.212Z,21.20
2023-11-13T19:15:40.910Z,42.10
2023-11-13T19:18:30.352Z,43.80
2023-11-13T19:21:20.475Z,45.80
2023-11-13T19:24:07.698Z,39.50
2023-11-13T19:26:54.948Z,35.20
2023-11-13T19:29:42.194Z,39.80
2023-11-13T19:32:30.041Z,36.40
2023-11-13T19:35:17.931Z,36.20
2023-11-13T19:38:05.279Z,32.40
2023-11-13T19:40:52.788Z,29.70
2023-11-13T19:43:41.667Z,43.00
2023-11-13T19:46:29.529Z,46.00
2023-11-13T19:49:17.125Z,34.20
2023-11-13T19:52:04.291Z,38.60
2023-11-13T19:54:52.022Z,40.50
2023-11-13T19:57:39.310Z,33.90
2023-11-13T20:00:28.684Z,36.90
2023-11-13T20:03:16.965Z,31.00
2023-11-13T20:06:04.250Z,31.10
2023-11-13T20:08:52.280Z,43.80
2023-11-13T20:11:39.822Z,34.50
2023-11-13T20:14:27.281Z,47.30
2023-11-13T20:17:14.257Z,40.00
2023-11-13T20:20:01.844Z,34.70
2023-11-13T20:22:49.005Z,40.70
2023-11-13T20:25:36.564Z,36.30
2023-11-13T20:28:24.362Z,42.20
2023-11-13T20:31:14.685Z,44.80
2023-11-13T20:34:04.903Z,31.10
2023-11-13T20:36:52.965Z,30.90
2023-11-13T20:39:40.090Z,54.70
2023-11-13T20:42:28.091Z,34.40
2023-11-13T20:45:15.527Z,38.30
2023-11-13T20:48:02.548Z,34.80
2023-11-13T20:50:50.444Z,37.20
2023-11-13T20:53:37.956Z,35.40
2023-11-13T20:56:25.841Z,41.00
2023-11-13T20:59:16.251Z,40.10
2023-11-13T21:02:07.040Z,32.00
2023-11-13T21:04:54.203Z,31.50
2023-11-13T21:07:41.741Z,32.20
2023-11-13T21:10:29.298Z,33.20
2023-11-13T21:13:20.516Z,42.30
2023-11-13T21:16:08.444Z,22.30
2023-11-13T21:18:57.289Z,36.10
2023-11-13T21:21:44.626Z,38.80
2023-11-13T21:24:32.909Z,33.80
2023-11-13T21:27:20.141Z,41.70
2023-11-13T21:30:11.457Z,31.90
2023-11-13T21:32:58.979Z,43.90
2023-11-13T21:35:46.181Z,30.50
2023-11-13T21:38:33.284Z,27.10
2023-11-13T21:41:20.920Z,26.60
2023-11-13T21:44:08.283Z,19.80
2023-11-13T21:46:55.704Z,22.20
2023-11-13T21:49:43.701Z,24.50
2023-11-13T21:52:31.408Z,16.70
2023-11-13T21:55:19.227Z,22.90
2023-11-13T21:58:06.809Z,19.70
2023-11-13T22:00:57.924Z,19.70
2023-11-13T22:03:45.572Z,26.30
2023-11-13T22:06:33.528Z,19.40
2023-11-13T22:09:21.747Z,22.60
2023-11-13T22:12:09.634Z,17.60
2023-11-13T22:14:59.601Z,23.80
2023-11-13T22:17:48.306Z,21.80
2023-11-13T22:20:35.976Z,27.30
2023-11-13T22:23:23.523Z,22.60
2023-11-13T22:26:11.366Z,27.50
2023-11-13T22:28:58.760Z,18.30
2023-11-13T22:31:46.672Z,25.90
2023-11-13T22:34:35.838Z,22.60
2023-11-13T22:37:23.187Z,25.20
2023-11-13T22:40:10.977Z,18.10
2023-11-13T22:42:58.547Z,30.20
2023-11-13T22:45:45.889Z,17.30
2023-11-13T22:48:33.444Z,28.40
2023-11-13T22:51:21.448Z,24.70
2023-11-13T22:54:10.660Z,24.70
2023-11-13T22:56:59.087Z,14.10
2023-11-13T22:59:48.222Z,19.30
2023-11-13T23:02:36.215Z,21.90
2023-11-13T23:05:24.545Z,23.80
2023-11-13T23:08:12.248Z,22.10
2023-11-13T23:10:59.656Z,15.60
2023-11-13T23:13:46.862Z,16.50
2023-11-13T23:17:16.299Z,12.00
2023-11-13T23:20:05.390Z,15.00
2023-11-13T23:22:53.356Z,17.80
2023-11-13T23:25:41.365Z,20.30
2023-11-13T23:28:28.826Z,16.70
2023-11-13T23:31:16.094Z,11.70
2023-11-13T23:34:03.432Z,22.80
2023-11-13T23:36:51.460Z,18.30
2023-11-13T23:39:38.501Z,19.50
2023-11-13T23:42:25.833Z,25.90
2023-11-13T23:45:13.112Z,22.10
2023-11-13T23:48:01.409Z,19.80
2023-11-13T23:50:48.959Z,17.40
2023-11-13T23:53:36.093Z,14.10
2023-11-13T23:56:24.957Z,22.30
2023-11-13T23:59:13.044Z,23.80
